Time;durP1;ratioP1;P1;durP2;ratioP2;P2;SDS_P1;SDS_P2;PMS_P1;PMS_P2;Temp;Humidity;BMP_temperature;BMP_pressure;BME280_temperature;BME280_humidity;BME280_pressure;Samples;Min_cycle;Max_cycle;Signal;HPM_P1;HPM_P2
2023/09/13 00:00:07;;;;;;;229.38;47.47;;;;;;;;;;5033534;28;20077;-70
2023/09/13 00:02:33;;;;;;;165.07;46.03;;;;;;;;;;5033933;28;20017;-70
2023/09/13 00:04:58;;;;;;;180.82;47.75;;;;;;;;;;5033995;28;20428;-71
2023/09/13 00:07:23;;;;;;;184.68;46.88;;;;;;;;;;5033764;28;20028;-70
2023/09/13 00:09:48;;;;;;;225.93;48.35;;;;;;;;;;5033906;28;20018;-71
2023/09/13 00:12:14;;;;;;;282.33;49.15;;;;;;;;;;5032844;28;20017;-71
2023/09/13 00:14:39;;;;;;;257.63;48.58;;;;;;;;;;5033770;28;20706;-71
2023/09/13 00:17:04;;;;;;;233.65;48.67;;;;;;;;;;5033640;28;20438;-70
2023/09/13 00:19:30;;;;;;;256.05;48.53;;;;;;;;;;5033526;28;20025;-71
2023/09/13 00:21:55;;;;;;;259.30;50.75;;;;;;;;;;5029955;28;20489;-70
2023/09/13 00:24:20;;;;;;;210.88;48.90;;;;;;;;;;5033511;28;20044;-70
2023/09/13 00:26:46;;;;;;;218.18;48.90;;;;;;;;;;5032105;28;21743;-71
2023/09/13 00:29:11;;;;;;;256.98;51.38;;;;;;;;;;5031270;28;20036;-70
2023/09/13 00:31:36;;;;;;;215.95;50.35;;;;;;;;;;5032389;28;20025;-71
2023/09/13 00:34:02;;;;;;;285.92;52.78;;;;;;;;;;5032033;28;20079;-71
2023/09/13 00:36:27;;;;;;;248.57;53.63;;;;;;;;;;5031829;28;20028;-71
2023/09/13 00:38:52;;;;;;;289.85;51.88;;;;;;;;;;5031880;28;20049;-70
2023/09/13 00:41:17;;;;;;;233.80;50.95;;;;;;;;;;5032516;28;20033;-71
2023/09/13 00:43:43;;;;;;;260.95;52.78;;;;;;;;;;5029343;28;20096;-71
2023/09/13 00:46:08;;;;;;;268.83;52.42;;;;;;;;;;5029239;28;20472;-70
2023/09/13 00:48:35;;;;;;;314.30;54.15;;;;;;;;;;5029384;28;20005;-70
2023/09/13 00:51:01;;;;;;;294.38;54.03;;;;;;;;;;5032779;28;20515;-71
2023/09/13 00:53:26;;;;;;;299.67;54.72;;;;;;;;;;5031296;28;20104;-70
2023/09/13 00:55:53;;;;;;;302.77;55.53;;;;;;;;;;5032563;28;20100;-71
2023/09/13 00:58:18;;;;;;;307.90;55.50;;;;;;;;;;5031847;28;20037;-71
2023/09/13 01:03:46;;;;;;;370.80;57.92;;;;;;;;;;5034704;23;20060;-71
2023/09/13 01:06:12;;;;;;;353.17;58.83;;;;;;;;;;5006943;28;20100;-73
2023/09/13 01:08:41;;;;;;;367.42;60.20;;;;;;;;;;5005264;28;20026;-73
2023/09/13 01:11:07;;;;;;;400.55;63.65;;;;;;;;;;4998142;28;20010;-72
2023/09/13 01:13:33;;;;;;;404.88;62.03;;;;;;;;;;5008489;28;20026;-73
2023/09/13 01:16:03;;;;;;;426.55;65.32;;;;;;;;;;5012261;28;20370;-73
2023/09/13 01:18:32;;;;;;;434.08;66.15;;;;;;;;;;5005904;28;20486;-73
2023/09/13 01:20:57;;;;;;;437.85;66.70;;;;;;;;;;4999809;28;20029;-73
2023/09/13 01:23:23;;;;;;;395.70;64.88;;;;;;;;;;4994185;28;20030;-73
2023/09/13 01:25:54;;;;;;;364.25;64.68;;;;;;;;;;4994008;28;20402;-73
2023/09/13 01:28:20;;;;;;;;;;;;;;;;;;4998567;28;20028;-73
2023/09/13 01:30:45;;;;;;;327.40;61.38;;;;;;;;;;5006962;28;19905;-73
2023/09/13 01:33:10;;;;;;;310.20;61.13;;;;;;;;;;5005621;28;20420;-74
2023/09/13 01:35:36;;;;;;;323.83;62.13;;;;;;;;;;4997447;28;20021;-74
2023/09/13 01:38:01;;;;;;;315.92;62.42;;;;;;;;;;4994264;28;20029;-75
2023/09/13 01:40:29;;;;;;;376.63;64.95;;;;;;;;;;5010703;28;20034;-75
2023/09/13 01:42:56;;;;;;;338.27;61.75;;;;;;;;;;4998157;28;20033;-75
2023/09/13 01:45:22;;;;;;;325.48;60.33;;;;;;;;;;4994841;28;20026;-76
2023/09/13 01:47:47;;;;;;;314.35;59.03;;;;;;;;;;5003914;28;20023;-76
2023/09/13 01:50:13;;;;;;;310.77;59.22;;;;;;;;;;5005655;28;20032;-75
2023/09/13 01:52:39;;;;;;;304.52;59.25;;;;;;;;;;5011727;28;20481;-75
2023/09/13 01:55:05;;;;;;;330.98;59.70;;;;;;;;;;5010588;28;20040;-75
2023/09/13 01:57:31;;;;;;;405.08;65.97;;;;;;;;;;4993871;28;20053;-75
2023/09/13 01:59:56;;;;;;;474.33;66.47;;;;;;;;;;5000031;28;20057;-75
2023/09/13 02:02:21;;;;;;;341.05;58.17;;;;;;;;;;4999672;28;20467;-75
2023/09/13 02:04:47;;;;;;;342.15;59.50;;;;;;;;;;4997206;28;20446;-75
2023/09/13 02:07:13;;;;;;;311.15;58.65;;;;;;;;;;5004492;28;20027;-75
2023/09/13 02:09:38;;;;;;;331.40;58.80;;;;;;;;;;4993772;28;20061;-75
2023/09/13 02:12:05;;;;;;;373.60;61.25;;;;;;;;;;4995086;28;20030;-74
2023/09/13 02:14:31;;;;;;;476.73;64.15;;;;;;;;;;4992116;28;20030;-74
2023/09/13 02:16:59;;;;;;;420.35;63.67;;;;;;;;;;4999376;28;20056;-74
2023/09/13 02:19:24;;;;;;;464.42;64.53;;;;;;;;;;5004294;28;20470;-73
2023/09/13 02:21:50;;;;;;;355.38;61.08;;;;;;;;;;4993022;28;20041;-74
2023/09/13 02:24:15;;;;;;;369.17;58.72;;;;;;;;;;4993007;28;20050;-74
2023/09/13 02:26:40;;;;;;;377.98;59.85;;;;;;;;;;4993329;28;20080;-74
2023/09/13 02:29:05;;;;;;;415.98;62.15;;;;;;;;;;4992927;28;20390;-71
2023/09/13 02:31:31;;;;;;;390.63;59.83;;;;;;;;;;4997732;28;20083;-74
2023/09/13 02:33:56;;;;;;;433.13;60.97;;;;;;;;;;5001050;28;20078;-74
2023/09/13 02:36:24;;;;;;;466.67;64.40;;;;;;;;;;5003756;28;20026;-73
2023/09/13 02:38:50;;;;;;;446.73;62.92;;;;;;;;;;4992746;28;21019;-73
2023/09/13 02:41:16;;;;;;;470.60;64.22;;;;;;;;;;4992882;28;20033;-73
2023/09/13 02:43:41;;;;;;;410.83;57.63;;;;;;;;;;4994389;28;20034;-73
2023/09/13 02:46:06;;;;;;;326.67;53.95;;;;;;;;;;5011300;28;20041;-74
2023/09/13 02:48:31;;;;;;;312.92;52.85;;;;;;;;;;5009957;28;20026;-73
2023/09/13 02:50:57;;;;;;;298.65;50.95;;;;;;;;;;4996354;28;20023;-74
2023/09/13 02:53:22;;;;;;;268.77;46.28;;;;;;;;;;5004323;28;20046;-75
2023/09/13 02:55:47;;;;;;;209.15;40.65;;;;;;;;;;5011206;28;20037;-74
2023/09/13 02:58:13;;;;;;;212.40;39.22;;;;;;;;;;5010728;28;20026;-75
2023/09/13 03:00:42;;;;;;;169.75;35.15;;;;;;;;;;5011446;28;20068;-75
2023/09/13 03:03:07;;;;;;;206.50;36.20;;;;;;;;;;5008895;28;20034;-75
2023/09/13 03:05:32;;;;;;;177.38;33.50;;;;;;;;;;5001245;28;20482;-75
2023/09/13 03:07:59;;;;;;;182.40;33.80;;;;;;;;;;5005813;28;20022;-74
2023/09/13 03:10:25;;;;;;;160.55;29.58;;;;;;;;;;5011374;28;20457;-74
2023/09/13 03:12:50;;;;;;;137.95;26.48;;;;;;;;;;4997405;28;20496;-74
2023/09/13 03:15:16;;;;;;;165.90;27.90;;;;;;;;;;5004370;28;20030;-74
2023/09/13 03:17:41;;;;;;;143.02;24.48;;;;;;;;;;5009139;28;20029;-74
2023/09/13 03:20:09;;;;;;;131.65;23.80;;;;;;;;;;5009923;28;20034;-74
2023/09/13 03:22:34;;;;;;;125.80;22.42;;;;;;;;;;5010588;28;20478;-74
2023/09/13 03:24:59;;;;;;;110.38;21.15;;;;;;;;;;5003265;28;20026;-74
2023/09/13 03:27:24;;;;;;;67.05;17.45;;;;;;;;;;5016814;28;20021;-74
2023/09/13 03:29:50;;;;;;;87.07;19.63;;;;;;;;;;5011155;28;20025;-73
2023/09/13 03:32:15;;;;;;;59.38;16.65;;;;;;;;;;5010241;28;20021;-73
2023/09/13 03:34:41;;;;;;;74.97;17.42;;;;;;;;;;5006669;28;20485;-73
2023/09/13 03:37:07;;;;;;;63.00;16.67;;;;;;;;;;4996885;28;20383;-74
2023/09/13 03:39:32;;;;;;;62.83;17.95;;;;;;;;;;5004618;28;20030;-72
2023/09/13 03:41:57;;;;;;;44.83;15.80;;;;;;;;;;5009139;28;20037;-73
2023/09/13 03:44:23;;;;;;;44.35;15.18;;;;;;;;;;4996596;28;20035;-73
2023/09/13 03:46:48;;;;;;;40.55;14.13;;;;;;;;;;5010036;28;20022;-72
2023/09/13 03:49:13;;;;;;;43.08;15.60;;;;;;;;;;5013249;28;20028;-73
2023/09/13 03:51:39;;;;;;;38.22;13.82;;;;;;;;;;5005945;28;20125;-73
2023/09/13 03:54:04;;;;;;;36.13;13.98;;;;;;;;;;5005838;28;20618;-70
2023/09/13 03:56:29;;;;;;;33.45;13.40;;;;;;;;;;5004324;28;20523;-72
2023/09/13 03:58:55;;;;;;;46.83;15.35;;;;;;;;;;5000368;28;20038;-72
2023/09/13 04:01:20;;;;;;;41.75;14.05;;;;;;;;;;5013044;28;20393;-74
2023/09/13 04:03:45;;;;;;;40.95;14.43;;;;;;;;;;5007774;28;20054;-72
2023/09/13 04:06:10;;;;;;;38.95;13.95;;;;;;;;;;5006769;28;20018;-72
2023/09/13 04:08:36;;;;;;;43.95;14.43;;;;;;;;;;5000419;28;20030;-72
2023/09/13 04:11:02;;;;;;;40.90;14.75;;;;;;;;;;5006741;28;20046;-71
2023/09/13 04:13:27;;;;;;;46.47;15.23;;;;;;;;;;4998599;28;20104;-71
2023/09/13 04:15:52;;;;;;;43.22;15.20;;;;;;;;;;5009042;28;20052;-71
2023/09/13 04:18:18;;;;;;;41.30;14.63;;;;;;;;;;5013506;28;20507;-71
2023/09/13 04:20:43;;;;;;;47.40;15.75;;;;;;;;;;5008186;28;20461;-71
2023/09/13 04:23:09;;;;;;;51.20;15.70;;;;;;;;;;4995406;28;20112;-71
2023/09/13 04:25:34;;;;;;;46.85;16.15;;;;;;;;;;5008008;28;20394;-71
2023/09/13 04:27:59;;;;;;;41.42;14.60;;;;;;;;;;4997472;28;20478;-71
2023/09/13 04:30:24;;;;;;;41.78;14.45;;;;;;;;;;5003902;28;20038;-70
2023/09/13 04:32:50;;;;;;;34.65;13.05;;;;;;;;;;5006758;28;20034;-71
2023/09/13 04:35:15;;;;;;;33.17;11.90;;;;;;;;;;5010232;28;20029;-69
2023/09/13 04:37:41;;;;;;;37.55;13.27;;;;;;;;;;5011416;28;20033;-70
2023/09/13 04:40:07;;;;;;;33.78;11.55;;;;;;;;;;4994888;28;20025;-70
2023/09/13 04:42:47;;;;;;;32.85;11.48;;;;;;;;;;4994667;28;20387;-70
2023/09/13 04:45:12;;;;;;;33.42;11.52;;;;;;;;;;5004610;28;20030;-70
2023/09/13 04:47:38;;;;;;;29.13;10.32;;;;;;;;;;5008283;28;20023;-70
2023/09/13 04:50:05;;;;;;;30.98;11.02;;;;;;;;;;5006755;28;20057;-72
2023/09/13 04:52:30;;;;;;;28.63;10.30;;;;;;;;;;4999897;28;20026;-72
2023/09/13 04:54:55;;;;;;;24.95;8.75;;;;;;;;;;5002089;28;20030;-71
2023/09/13 04:57:20;;;;;;;25.20;8.15;;;;;;;;;;5006371;28;20030;-70
2023/09/13 04:59:47;;;;;;;23.73;7.78;;;;;;;;;;4996605;28;20065;-70
2023/09/13 05:02:13;;;;;;;29.25;8.75;;;;;;;;;;5008023;28;20473;-71
2023/09/13 05:04:38;;;;;;;32.92;9.77;;;;;;;;;;5007487;28;20099;-70
2023/09/13 05:07:04;;;;;;;33.67;10.00;;;;;;;;;;5000305;28;20034;-68
2023/09/13 05:09:29;;;;;;;34.70;10.35;;;;;;;;;;4994198;28;20379;-68
2023/09/13 05:11:55;;;;;;;36.92;10.70;;;;;;;;;;5001063;28;20058;-68
2023/09/13 05:14:20;;;;;;;40.90;11.73;;;;;;;;;;4993820;28;20030;-68
2023/09/13 05:16:45;;;;;;;55.10;15.05;;;;;;;;;;4992423;28;20418;-67
2023/09/13 05:19:10;;;;;;;65.05;16.20;;;;;;;;;;4993338;28;20101;-68
2023/09/13 05:21:36;;;;;;;78.72;21.77;;;;;;;;;;5001205;28;20018;-67
2023/09/13 05:24:02;;;;;;;91.70;22.77;;;;;;;;;;4998239;28;20029;-66
2023/09/13 05:26:27;;;;;;;112.10;25.83;;;;;;;;;;5005383;28;20026;-67
2023/09/13 05:28:52;;;;;;;106.28;25.13;;;;;;;;;;4998410;28;20022;-66
2023/09/13 05:31:17;;;;;;;115.38;27.17;;;;;;;;;;4993937;28;20097;-66
2023/09/13 05:33:43;;;;;;;112.93;27.52;;;;;;;;;;4993683;28;20458;-67
2023/09/13 05:36:08;;;;;;;113.53;28.23;;;;;;;;;;4993545;28;20077;-66
2023/09/13 05:38:33;;;;;;;116.75;27.63;;;;;;;;;;4993526;28;20018;-66
2023/09/13 05:41:04;;;;;;;118.22;28.88;;;;;;;;;;4993712;28;20034;-66
2023/09/13 05:43:29;;;;;;;115.75;27.75;;;;;;;;;;4998406;28;20026;-67
2023/09/13 05:45:54;;;;;;;109.18;26.98;;;;;;;;;;5011810;28;20029;-66
2023/09/13 05:48:19;;;;;;;123.93;30.05;;;;;;;;;;5011407;28;20014;-66
2023/09/13 05:50:45;;;;;;;122.28;29.00;;;;;;;;;;5011266;28;20021;-65
2023/09/13 05:53:10;;;;;;;130.85;30.80;;;;;;;;;;4993175;28;20193;-66
2023/09/13 05:55:36;;;;;;;132.98;30.33;;;;;;;;;;4993228;28;20033;-65
2023/09/13 05:58:01;;;;;;;119.68;30.13;;;;;;;;;;4996748;28;20026;-66
2023/09/13 06:00:26;;;;;;;116.82;27.40;;;;;;;;;;4993199;28;20014;-65
2023/09/13 06:02:51;;;;;;;90.63;25.15;;;;;;;;;;4995634;28;20027;-65
2023/09/13 06:05:17;;;;;;;81.65;21.98;;;;;;;;;;5011341;28;20497;-64
2023/09/13 06:07:42;;;;;;;66.97;20.10;;;;;;;;;;4996476;28;20406;-65
2023/09/13 06:10:08;;;;;;;64.88;19.00;;;;;;;;;;4993219;28;20019;-65
2023/09/13 06:12:33;;;;;;;55.45;17.33;;;;;;;;;;5005369;28;20019;-65
2023/09/13 06:14:59;;;;;;;55.70;16.65;;;;;;;;;;4994862;28;20378;-65
2023/09/13 06:17:24;;;;;;;50.75;17.02;;;;;;;;;;4997397;28;20466;-64
2023/09/13 06:19:50;;;;;;;45.35;15.45;;;;;;;;;;4993267;28;20026;-64
2023/09/13 06:22:17;;;;;;;48.25;14.57;;;;;;;;;;5008904;28;20018;-65
2023/09/13 06:24:42;;;;;;;42.58;15.07;;;;;;;;;;4996430;28;20038;-65
2023/09/13 06:27:07;;;;;;;42.42;14.65;;;;;;;;;;5003107;28;20022;-65
2023/09/13 06:29:32;;;;;;;41.95;14.88;;;;;;;;;;4998791;28;20026;-65
2023/09/13 06:31:57;;;;;;;41.47;14.32;;;;;;;;;;5011473;28;20165;-65
2023/09/13 06:34:23;;;;;;;41.65;14.90;;;;;;;;;;5011425;28;20132;-64
2023/09/13 06:36:48;;;;;;;39.95;14.68;;;;;;;;;;5011378;28;20022;-64
2023/09/13 06:39:14;;;;;;;36.95;14.32;;;;;;;;;;5011403;28;20080;-64
2023/09/13 06:41:39;;;;;;;36.47;13.82;;;;;;;;;;5007685;28;20084;-64
2023/09/13 06:44:09;;;;;;;31.67;13.80;;;;;;;;;;4993042;28;20032;-65
2023/09/13 06:46:34;;;;;;;30.27;14.05;;;;;;;;;;4993744;28;20382;-64
2023/09/13 06:48:59;;;;;;;32.55;13.77;;;;;;;;;;4993227;28;20026;-64
2023/09/13 06:51:24;;;;;;;26.73;13.30;;;;;;;;;;4993645;28;20018;-65
2023/09/13 06:53:50;;;;;;;31.77;13.25;;;;;;;;;;4993635;28;20053;-65
2023/09/13 06:56:15;;;;;;;25.45;12.70;;;;;;;;;;4993301;28;20026;-64
2023/09/13 06:58:40;;;;;;;23.85;12.05;;;;;;;;;;4993266;28;20162;-65
2023/09/13 07:01:06;;;;;;;27.65;11.23;;;;;;;;;;5004898;28;20164;-64
2023/09/13 07:03:31;;;;;;;19.67;10.60;;;;;;;;;;5016220;28;20057;-64
2023/09/13 07:05:56;;;;;;;18.17;10.55;;;;;;;;;;5016811;28;20018;-64
2023/09/13 07:08:21;;;;;;;18.30;10.38;;;;;;;;;;5016458;28;20040;-64
2023/09/13 07:10:47;;;;;;;20.05;11.55;;;;;;;;;;5016354;28;20040;-64
2023/09/13 07:13:12;;;;;;;23.50;13.40;;;;;;;;;;5016498;28;20076;-64
2023/09/13 07:15:38;;;;;;;29.35;16.80;;;;;;;;;;5016347;28;20030;-64
2023/09/13 07:18:04;;;;;;;30.85;16.45;;;;;;;;;;5015361;28;20100;-64
2023/09/13 07:20:29;;;;;;;31.63;17.48;;;;;;;;;;5016407;28;20093;-64
2023/09/13 07:22:54;;;;;;;33.10;17.88;;;;;;;;;;5016099;28;20080;-64
2023/09/13 07:25:20;;;;;;;27.08;16.20;;;;;;;;;;5015612;28;20414;-65
2023/09/13 07:27:45;;;;;;;28.00;15.45;;;;;;;;;;5016402;28;20050;-63
2023/09/13 07:30:10;;;;;;;28.92;14.30;;;;;;;;;;5016449;28;20030;-63
2023/09/13 07:32:37;;;;;;;25.88;14.60;;;;;;;;;;5016061;28;20018;-64
2023/09/13 07:35:03;;;;;;;24.92;14.57;;;;;;;;;;5015941;28;20076;-63
2023/09/13 07:37:29;;;;;;;22.92;13.23;;;;;;;;;;5015883;28;20083;-64
2023/09/13 07:39:54;;;;;;;21.50;11.77;;;;;;;;;;5016255;28;20474;-63
2023/09/13 07:42:20;;;;;;;22.20;11.80;;;;;;;;;;5015792;28;20470;-63
2023/09/13 07:44:45;;;;;;;22.20;11.27;;;;;;;;;;5015764;28;20030;-63
2023/09/13 07:47:10;;;;;;;18.08;11.02;;;;;;;;;;5016093;28;20057;-63
2023/09/13 07:49:35;;;;;;;20.33;10.48;;;;;;;;;;5016023;28;20030;-63
2023/09/13 07:52:00;;;;;;;16.52;6.72;;;;;;;;;;5015719;28;20021;-63
2023/09/13 07:54:26;;;;;;;14.98;5.80;;;;;;;;;;5015792;28;20528;-63
2023/09/13 07:56:51;;;;;;;11.40;4.15;;;;;;;;;;5015572;28;20474;-63
2023/09/13 07:59:18;;;;;;;14.95;3.60;;;;;;;;;;5015586;28;20034;-63
2023/09/13 08:01:44;;;;;;;8.50;3.05;;;;;;;;;;5015255;28;20026;-63
2023/09/13 08:04:09;;;;;;;13.48;3.05;;;;;;;;;;5015322;28;20054;-63
2023/09/13 08:06:34;;;;;;;9.32;2.47;;;;;;;;;;5015440;28;20044;-63
2023/09/13 08:08:59;;;;;;;8.90;2.55;;;;;;;;;;5015710;28;20064;-63
2023/09/13 08:11:25;;;;;;;5.90;2.28;;;;;;;;;;5015221;28;20105;-63
2023/09/13 08:13:50;;;;;;;7.38;2.10;;;;;;;;;;5015550;28;20034;-63
2023/09/13 08:16:15;;;;;;;8.93;2.28;;;;;;;;;;5015540;28;20492;-63
2023/09/13 08:18:41;;;;;;;7.60;2.25;;;;;;;;;;5015213;28;20485;-63
2023/09/13 08:21:06;;;;;;;8.93;2.55;;;;;;;;;;5015197;28;20058;-62
2023/09/13 08:23:32;;;;;;;12.18;2.35;;;;;;;;;;5015302;28;20059;-62
2023/09/13 08:25:57;;;;;;;8.18;2.55;;;;;;;;;;5015092;28;20029;-63
2023/09/13 08:28:23;;;;;;;8.70;3.53;;;;;;;;;;5014995;28;20359;-62
2023/09/13 08:30:49;;;;;;;9.75;2.90;;;;;;;;;;5015172;28;20630;-62
2023/09/13 08:33:15;;;;;;;10.65;3.05;;;;;;;;;;5015319;28;20046;-63
2023/09/13 08:35:41;;;;;;;8.13;2.85;;;;;;;;;;5015107;28;20484;-64
2023/09/13 08:38:06;;;;;;;11.27;2.60;;;;;;;;;;5015150;28;20030;-62
2023/09/13 08:40:31;;;;;;;8.20;2.20;;;;;;;;;;5014750;28;20034;-62
2023/09/13 08:42:57;;;;;;;11.95;2.30;;;;;;;;;;5014723;28;20022;-63
2023/09/13 08:45:22;;;;;;;10.07;2.40;;;;;;;;;;5014937;28;20030;-62
2023/09/13 08:47:49;;;;;;;6.50;1.98;;;;;;;;;;5014922;28;20382;-64
2023/09/13 08:50:14;;;;;;;7.70;1.90;;;;;;;;;;5014948;28;20351;-63
2023/09/13 08:52:41;;;;;;;12.07;1.98;;;;;;;;;;5014491;28;20044;-63
2023/09/13 08:55:07;;;;;;;8.23;1.95;;;;;;;;;;5014066;28;20478;-63
2023/09/13 08:57:33;;;;;;;6.15;2.00;;;;;;;;;;5014528;28;20025;-62
2023/09/13 08:59:59;;;;;;;11.65;2.10;;;;;;;;;;5014392;28;20429;-63
2023/09/13 09:02:24;;;;;;;9.23;2.83;;;;;;;;;;5014398;28;20041;-63
2023/09/13 09:04:50;;;;;;;9.80;2.30;;;;;;;;;;5013961;28;20077;-62
2023/09/13 09:07:17;;;;;;;7.95;2.00;;;;;;;;;;5014395;28;20068;-63
2023/09/13 09:09:42;;;;;;;7.93;2.00;;;;;;;;;;5014222;28;20029;-63
2023/09/13 09:12:10;;;;;;;9.85;2.30;;;;;;;;;;5014626;28;20229;-68
2023/09/13 09:14:36;;;;;;;6.15;2.08;;;;;;;;;;5014287;28;20096;-68
2023/09/13 09:17:02;;;;;;;8.38;2.85;;;;;;;;;;5011088;28;20029;-67
2023/09/13 09:19:28;;;;;;;7.15;1.88;;;;;;;;;;5014049;28;20029;-68
2023/09/13 09:21:53;;;;;;;8.13;2.45;;;;;;;;;;5013760;28;20048;-68
2023/09/13 09:24:18;;;;;;;6.07;1.80;;;;;;;;;;5013244;28;20056;-68
2023/09/13 09:26:47;;;;;;;6.28;1.98;;;;;;;;;;5013915;28;20036;-68
2023/09/13 09:29:18;;;;;;;7.68;2.00;;;;;;;;;;5013901;28;20101;-68
2023/09/13 09:31:43;;;;;;;12.05;2.20;;;;;;;;;;5013845;28;20037;-68
2023/09/13 09:34:09;;;;;;;10.73;2.25;;;;;;;;;;5013407;28;20032;-69
2023/09/13 09:36:41;;;;;;;11.63;2.28;;;;;;;;;;5014086;28;20478;-69
2023/09/13 09:39:06;;;;;;;5.82;1.80;;;;;;;;;;5014115;28;20026;-68
2023/09/13 09:41:32;;;;;;;6.60;2.25;;;;;;;;;;5013666;28;20018;-69
2023/09/13 09:43:58;;;;;;;13.70;2.45;;;;;;;;;;5013865;28;20038;-69
2023/09/13 09:46:23;;;;;;;10.95;2.35;;;;;;;;;;5013968;28;20022;-69
2023/09/13 09:48:50;;;;;;;6.78;2.00;;;;;;;;;;5013874;28;20042;-69
2023/09/13 09:51:15;;;;;;;11.82;2.40;;;;;;;;;;5013870;28;20421;-69
2023/09/13 09:53:40;;;;;;;15.00;2.25;;;;;;;;;;5013775;28;20022;-69
2023/09/13 09:56:05;;;;;;;10.57;2.42;;;;;;;;;;5013522;28;20045;-69
2023/09/13 09:58:31;;;;;;;8.65;2.15;;;;;;;;;;5013497;28;20022;-70
2023/09/13 10:01:00;;;;;;;8.38;2.40;;;;;;;;;;5013724;28;20022;-69
2023/09/13 10:03:25;;;;;;;8.20;2.00;;;;;;;;;;5013028;28;20022;-69
2023/09/13 10:05:55;;;;;;;7.90;1.92;;;;;;;;;;5013634;28;20040;-69
2023/09/13 10:08:40;;;;;;;10.57;2.08;;;;;;;;;;5013332;28;20025;-68
2023/09/13 10:11:09;;;;;;;9.30;2.38;;;;;;;;;;5013364;28;20105;-68
2023/09/13 10:13:35;;;;;;;9.80;1.90;;;;;;;;;;5013372;28;20462;-68
2023/09/13 10:16:01;;;;;;;15.13;2.25;;;;;;;;;;5013629;28;20555;-68
2023/09/13 10:18:26;;;;;;;9.00;2.50;;;;;;;;;;5013575;28;20026;-68
2023/09/13 10:20:56;;;;;;;7.32;2.25;;;;;;;;;;5013556;28;20018;-68
2023/09/13 10:23:24;;;;;;;9.85;2.22;;;;;;;;;;5013340;28;20021;-63
2023/09/13 10:25:49;;;;;;;6.88;1.80;;;;;;;;;;5013382;28;20057;-64
2023/09/13 10:28:14;;;;;;;10.35;2.28;;;;;;;;;;5013255;28;20378;-62
2023/09/13 10:30:40;;;;;;;9.32;2.72;;;;;;;;;;5013261;28;20056;-63
2023/09/13 10:33:06;;;;;;;8.90;2.13;;;;;;;;;;5013486;28;20516;-63
2023/09/13 10:35:34;;;;;;;6.95;2.13;;;;;;;;;;5015488;28;20034;-63
2023/09/13 10:38:03;;;;;;;5.95;1.98;;;;;;;;;;5017210;28;20026;-63
2023/09/13 10:40:34;;;;;;;6.10;1.83;;;;;;;;;;5016986;28;20030;-63
2023/09/13 10:43:00;;;;;;;6.20;1.90;;;;;;;;;;5017202;28;20501;-63
2023/09/13 10:45:25;;;;;;;6.50;1.80;;;;;;;;;;5016459;28;20014;-63
2023/09/13 10:47:51;;;;;;;8.38;2.20;;;;;;;;;;5017221;28;20018;-63
2023/09/13 10:50:16;;;;;;;5.53;2.00;;;;;;;;;;5017216;28;20041;-63
2023/09/13 10:52:46;;;;;;;9.57;2.60;;;;;;;;;;5016843;28;20018;-63
2023/09/13 10:55:11;;;;;;;8.05;2.65;;;;;;;;;;5016797;28;20080;-63
2023/09/13 10:57:37;;;;;;;6.72;2.00;;;;;;;;;;5016685;28;20049;-63
2023/09/13 11:00:12;;;;;;;4.88;1.70;;;;;;;;;;5017011;28;20092;-63
2023/09/13 11:02:38;;;;;;;7.60;2.17;;;;;;;;;;5016608;28;20021;-63
2023/09/13 11:05:04;;;;;;;7.80;2.30;;;;;;;;;;5016242;28;20046;-63
2023/09/13 11:07:31;;;;;;;8.68;1.90;;;;;;;;;;5016833;28;20538;-63
2023/09/13 11:10:02;;;;;;;8.32;2.53;;;;;;;;;;5016603;28;20022;-63
2023/09/13 11:12:27;;;;;;;7.00;2.17;;;;;;;;;;5016709;28;20045;-64
2023/09/13 11:14:53;;;;;;;9.52;2.00;;;;;;;;;;5016370;28;20461;-64
2023/09/13 11:17:37;;;;;;;9.55;2.20;;;;;;;;;;5016103;28;20053;-63
2023/09/13 11:20:22;;;;;;;7.45;1.95;;;;;;;;;;5015099;28;20025;-64
2023/09/13 11:23:00;;;;;;;6.00;1.83;;;;;;;;;;5013567;28;20373;-63
2023/09/13 11:25:29;;;;;;;8.68;1.95;;;;;;;;;;5016424;28;20068;-63
2023/09/13 11:27:56;;;;;;;10.55;1.92;;;;;;;;;;5016188;28;20072;-64
2023/09/13 11:30:41;;;;;;;6.38;2.03;;;;;;;;;;5016102;28;20466;-63
2023/09/13 11:33:06;;;;;;;5.00;1.80;;;;;;;;;;5016036;28;20530;-63
2023/09/13 11:35:34;;;;;;;5.78;1.73;;;;;;;;;;5016356;28;20121;-64
2023/09/13 11:37:59;;;;;;;4.20;1.67;;;;;;;;;;5016302;28;20033;-63
2023/09/13 11:40:24;;;;;;;4.45;1.75;;;;;;;;;;5015920;28;20355;-64
2023/09/13 11:42:51;;;;;;;6.50;1.60;;;;;;;;;;5016119;28;20095;-64
2023/09/13 11:45:17;;;;;;;7.20;2.00;;;;;;;;;;5015401;28;20022;-64
2023/09/13 11:47:42;;;;;;;5.07;1.60;;;;;;;;;;5016054;28;20079;-64
2023/09/13 11:50:08;;;;;;;4.97;1.67;;;;;;;;;;5015583;28;20018;-64
2023/09/13 11:52:53;;;;;;;4.47;1.50;;;;;;;;;;5015819;28;20017;-64
2023/09/13 11:55:25;;;;;;;4.68;1.60;;;;;;;;;;4974496;28;20116;-63
2023/09/13 11:57:51;;;;;;;4.25;1.60;;;;;;;;;;4974584;28;20487;-64
2023/09/13 12:00:22;;;;;;;5.03;1.60;;;;;;;;;;4974568;28;20034;-63
2023/09/13 12:02:47;;;;;;;7.80;1.80;;;;;;;;;;4974509;28;20455;-64
2023/09/13 12:05:12;;;;;;;5.22;1.70;;;;;;;;;;4974090;28;20050;-64
2023/09/13 12:07:38;;;;;;;4.00;1.70;;;;;;;;;;4974359;28;20446;-64
2023/09/13 12:10:04;;;;;;;6.57;1.80;;;;;;;;;;4974055;28;20015;-64
2023/09/13 12:12:38;;;;;;;5.40;1.60;;;;;;;;;;4973932;28;20249;-64
2023/09/13 12:15:05;;;;;;;5.63;1.70;;;;;;;;;;4974354;28;20195;-64
2023/09/13 12:17:36;;;;;;;5.30;1.63;;;;;;;;;;4974229;28;20023;-64
2023/09/13 12:20:04;;;;;;;6.13;1.90;;;;;;;;;;4974115;28;20054;-63
2023/09/13 12:22:30;;;;;;;5.18;1.60;;;;;;;;;;4973639;28;20050;-64
2023/09/13 12:24:58;;;;;;;3.88;1.40;;;;;;;;;;4973891;28;20093;-64
2023/09/13 12:27:23;;;;;;;6.75;1.90;;;;;;;;;;4974079;28;20119;-64
2023/09/13 12:29:48;;;;;;;3.72;1.60;;;;;;;;;;4973996;28;20122;-64
2023/09/13 12:32:14;;;;;;;6.32;1.75;;;;;;;;;;4991874;28;20080;-65
2023/09/13 12:34:40;;;;;;;5.57;1.75;;;;;;;;;;5015159;28;20026;-64
2023/09/13 12:37:06;;;;;;;4.78;1.60;;;;;;;;;;5014229;28;20044;-64
2023/09/13 12:39:31;;;;;;;7.47;2.00;;;;;;;;;;5015080;28;20030;-64
2023/09/13 12:41:56;;;;;;;7.05;1.80;;;;;;;;;;5014714;28;20026;-64
2023/09/13 12:44:21;;;;;;;6.40;2.05;;;;;;;;;;5014826;28;20056;-65
2023/09/13 12:46:48;;;;;;;7.43;1.90;;;;;;;;;;5014980;28;20042;-67
2023/09/13 12:49:14;;;;;;;4.82;1.83;;;;;;;;;;5013452;28;20018;-66
2023/09/13 12:51:40;;;;;;;7.65;2.05;;;;;;;;;;5014896;28;20033;-66
2023/09/13 12:54:06;;;;;;;6.78;1.83;;;;;;;;;;5014606;28;20451;-65
2023/09/13 12:56:32;;;;;;;4.68;1.42;;;;;;;;;;5014472;28;20037;-64
2023/09/13 12:58:57;;;;;;;6.60;1.70;;;;;;;;;;5014138;28;20478;-63
2023/09/13 13:01:24;;;;;;;6.68;1.70;;;;;;;;;;5014413;28;20025;-63
2023/09/13 13:04:06;;;;;;;7.70;2.00;;;;;;;;;;5013933;28;20049;-64
2023/09/13 13:06:36;;;;;;;5.07;1.90;;;;;;;;;;5014524;28;20427;-66
2023/09/13 13:09:05;;;;;;;6.45;1.70;;;;;;;;;;5014213;28;20018;-64
2023/09/13 13:11:34;;;;;;;4.88;1.80;;;;;;;;;;5014246;28;20386;-64
2023/09/13 13:13:59;;;;;;;8.80;2.10;;;;;;;;;;5014503;28;20022;-64
2023/09/13 13:16:25;;;;;;;6.15;1.98;;;;;;;;;;5013694;28;20519;-64
2023/09/13 13:18:51;;;;;;;5.80;1.60;;;;;;;;;;5014330;28;20021;-66
2023/09/13 13:21:17;;;;;;;7.30;1.90;;;;;;;;;;5013870;28;20045;-66
2023/09/13 13:23:45;;;;;;;6.47;1.90;;;;;;;;;;5013791;28;20018;-65
2023/09/13 13:26:11;;;;;;;6.18;1.85;;;;;;;;;;5014238;28;20089;-65
2023/09/13 13:28:37;;;;;;;5.43;1.90;;;;;;;;;;5014265;28;20407;-66
2023/09/13 13:31:02;;;;;;;4.70;1.70;;;;;;;;;;5013288;28;20367;-65
2023/09/13 13:33:27;;;;;;;5.60;1.80;;;;;;;;;;5014133;28;20022;-64
2023/09/13 13:35:52;;;;;;;7.30;2.22;;;;;;;;;;5013753;28;20026;-64
2023/09/13 13:38:18;;;;;;;6.57;1.90;;;;;;;;;;5014164;28;20021;-65
2023/09/13 13:40:43;;;;;;;8.40;2.10;;;;;;;;;;5013778;28;20056;-63
2023/09/13 13:43:09;;;;;;;5.85;1.70;;;;;;;;;;5012387;28;20062;-68
2023/09/13 13:45:34;;;;;;;9.02;1.90;;;;;;;;;;5013591;28;20057;-68
2023/09/13 13:47:59;;;;;;;6.00;2.13;;;;;;;;;;5013639;28;20018;-68
2023/09/13 13:50:24;;;;;;;6.22;1.80;;;;;;;;;;5013552;28;20026;-69
2023/09/13 13:52:50;;;;;;;6.38;1.60;;;;;;;;;;5013611;28;20071;-69
2023/09/13 13:55:15;;;;;;;4.20;1.50;;;;;;;;;;5014006;28;20018;-66
2023/09/13 13:57:42;;;;;;;7.50;1.67;;;;;;;;;;5013447;28;20026;-65
2023/09/13 14:00:08;;;;;;;7.18;1.73;;;;;;;;;;5013716;28;20030;-67
2023/09/13 14:02:36;;;;;;;6.32;2.85;;;;;;;;;;5013677;28;20026;-66
2023/09/13 14:05:03;;;;;;;6.22;1.58;;;;;;;;;;5013043;28;20049;-66
2023/09/13 14:07:28;;;;;;;4.85;1.70;;;;;;;;;;5013459;28;20018;-66
2023/09/13 14:09:53;;;;;;;4.97;1.45;;;;;;;;;;5013581;28;20022;-66
2023/09/13 14:12:19;;;;;;;6.63;1.70;;;;;;;;;;5013052;28;20061;-66
2023/09/13 14:14:44;;;;;;;4.82;1.42;;;;;;;;;;5013259;28;20014;-66
2023/09/13 14:17:09;;;;;;;8.40;1.42;;;;;;;;;;5012979;28;20032;-67
2023/09/13 14:19:34;;;;;;;5.22;1.48;;;;;;;;;;5013436;28;20013;-67